Time;durP1;ratioP1;P1;durP2;ratioP2;P2;SDS_P1;SDS_P2;PMS_P1;PMS_P2;Temp;Humidity;BMP_temperature;BMP_pressure;BME280_temperature;BME280_humidity;BME280_pressure;Samples;Min_cycle;Max_cycle;Signal;HPM_P1;HPM_P2
2022/07/31 16:05:19;;;;;;;3.35;1.85;;;;;;;30.73;33.94;99223.84;1781568;79;23187;-57
2022/07/31 16:07:46;;;;;;;3.62;1.50;;;;;;;30.72;33.58;99228.94;1766940;80;21510;-58
2022/07/31 16:10:14;;;;;;;6.70;1.90;;;;;;;30.67;33.50;99232.28;1771147;79;21771;-58
2022/07/31 16:12:41;;;;;;;10.45;2.00;;;;;;;30.55;33.47;99225.78;1761606;79;21620;-58
2022/07/31 16:15:11;;;;;;;2.10;1.77;;;;;;;30.45;33.39;99231.61;1765568;79;21538;-59
2022/07/31 16:17:37;;;;;;;3.05;2.00;;;;;;;30.27;33.43;99237.55;1763668;79;21613;-59
2022/07/31 16:20:14;;;;;;;5.92;1.72;;;;;;;30.12;32.95;99236.88;1758173;80;21585;-58
2022/07/31 16:22:42;;;;;;;8.95;1.77;;;;;;;29.90;33.30;99234.30;1766243;79;21853;-59
2022/07/31 16:25:08;;;;;;;;;;;;;;;29.68;33.29;99235.70;1765421;79;21574;-59
2022/07/31 16:27:36;;;;;;;6.75;1.85;;;;;;;29.48;33.20;99236.12;1774193;79;20143;-59
2022/07/31 16:30:04;;;;;;;4.22;1.62;;;;;;;29.28;34.04;99237.31;1766748;79;21485;-59
2022/07/31 16:32:31;;;;;;;7.25;2.08;;;;;;;29.09;34.20;99240.16;1759458;79;20942;-59
2022/07/31 16:34:57;;;;;;;3.70;1.40;;;;;;;28.91;34.47;99240.61;1759883;80;21641;-60
2022/07/31 16:37:24;;;;;;;4.30;1.60;;;;;;;28.75;34.33;99236.84;1754312;79;21621;-59
2022/07/31 16:39:52;;;;;;;7.63;1.80;;;;;;;28.57;34.27;99239.45;1750296;80;21580;-58
2022/07/31 16:42:19;;;;;;;7.25;2.25;;;;;;;28.41;34.19;99235.62;1751675;80;22225;-58
2022/07/31 16:44:45;;;;;;;2.62;1.70;;;;;;;28.24;34.45;99237.20;1763697;79;21542;-58
2022/07/31 16:47:13;;;;;;;4.05;1.80;;;;;;;28.11;34.64;99243.80;1753387;80;21954;-57
2022/07/31 16:49:40;;;;;;;3.10;2.52;;;;;;;28.00;34.84;99235.66;1762918;79;21407;-58
2022/07/31 16:52:07;;;;;;;3.37;2.08;;;;;;;27.85;35.28;99241.55;1753882;79;21534;-58
2022/07/31 16:54:34;;;;;;;5.83;2.08;;;;;;;27.72;35.51;99245.73;1752148;80;21455;-58
2022/07/31 16:57:00;;;;;;;5.45;1.90;;;;;;;27.59;35.74;99249.59;1762553;80;21037;-58
2022/07/31 16:59:27;;;;;;;7.22;2.00;;;;;;;27.44;36.06;99250.92;1753288;79;21923;-58
2022/07/31 17:01:54;;;;;;;7.70;2.08;;;;;;;27.29;36.39;99249.55;1758286;79;21481;-58
2022/07/31 17:04:20;;;;;;;6.97;1.85;;;;;;;27.17;36.67;99255.88;1759316;79;21617;-59
2022/07/31 17:06:47;;;;;;;8.63;1.92;;;;;;;27.04;37.18;99254.83;1747156;80;21428;-59
2022/07/31 17:09:14;;;;;;;7.67;2.15;;;;;;;26.91;37.32;99256.27;1688885;83;21529;-59
2022/07/31 17:11:41;;;;;;;7.97;2.00;;;;;;;26.78;37.62;99252.81;1697791;83;21856;-59
2022/07/31 17:14:08;;;;;;;6.27;1.70;;;;;;;26.65;38.01;99256.61;1767184;80;21526;-58
2022/07/31 17:16:34;;;;;;;8.05;2.27;;;;;;;26.56;38.23;99256.30;1763339;80;21433;-58
2022/07/31 17:19:01;;;;;;;2.10;2.00;;;;;;;26.46;38.53;99251.66;1752444;80;21093;-59
2022/07/31 17:21:28;;;;;;;11.12;2.12;;;;;;;26.35;38.82;99257.80;1754974;79;21716;-57
2022/07/31 17:23:54;;;;;;;7.75;1.95;;;;;;;26.26;39.08;99260.20;1743993;80;21848;-57
2022/07/31 17:26:22;;;;;;;6.08;1.80;;;;;;;26.16;39.22;99258.22;1748610;80;21558;-58
2022/07/31 17:28:49;;;;;;;;;;;;;;;26.08;39.43;99265.00;1751771;80;21410;-57
2022/07/31 17:31:17;;;;;;;8.70;2.02;;;;;;;25.97;39.84;99261.66;1751165;80;20152;-58
2022/07/31 17:33:44;;;;;;;4.17;1.67;;;;;;;25.86;39.83;99262.00;1753409;80;21470;-58
2022/07/31 17:36:10;;;;;;;2.95;1.60;;;;;;;25.77;40.10;99267.94;1750473;80;21850;-58
2022/07/31 17:38:37;;;;;;;3.67;1.85;;;;;;;25.71;40.46;99266.42;1753617;80;21541;-57
2022/07/31 17:41:04;;;;;;;2.42;1.90;;;;;;;25.69;40.44;99273.84;1751805;80;21534;-57
2022/07/31 17:43:31;;;;;;;5.55;1.72;;;;;;;25.61;40.76;99273.36;1749658;80;21649;-57
2022/07/31 17:45:57;;;;;;;5.43;1.77;;;;;;;25.53;40.90;99277.42;1747969;80;21498;-57
2022/07/31 17:48:24;;;;;;;4.70;2.17;;;;;;;25.45;40.99;99280.45;1762554;80;21904;-56
2022/07/31 17:50:51;;;;;;;7.62;2.05;;;;;;;25.36;41.25;99277.44;1760135;80;21565;-57
2022/07/31 17:53:18;;;;;;;7.33;2.20;;;;;;;25.28;41.51;99277.94;1745010;80;21471;-58
2022/07/31 17:55:45;;;;;;;2.22;1.60;;;;;;;25.21;41.54;99274.55;1765218;80;20974;-58
2022/07/31 17:58:12;;;;;;;6.30;2.30;;;;;;;25.16;41.70;99276.90;1753169;80;21562;-58
2022/07/31 18:00:38;;;;;;;5.35;2.33;;;;;;;25.09;42.12;99281.30;1756421;80;21957;-58
2022/07/31 18:03:05;;;;;;;5.83;2.30;;;;;;;25.01;42.28;99277.24;1753468;80;21887;-58
2022/07/31 18:05:31;;;;;;;3.02;2.00;;;;;;;24.93;42.25;99283.97;1743446;80;21061;-58
2022/07/31 18:07:58;;;;;;;5.95;2.10;;;;;;;24.83;42.71;99285.48;1754770;80;21531;-58
2022/07/31 18:10:24;;;;;;;5.03;2.10;;;;;;;24.76;42.77;99283.11;1748846;80;21566;-58
2022/07/31 18:12:51;;;;;;;9.10;2.27;;;;;;;24.68;43.07;99292.84;1751662;80;21869;-57
2022/07/31 18:15:18;;;;;;;5.93;2.23;;;;;;;24.60;43.65;99292.83;1748350;80;21475;-58
2022/07/31 18:17:48;;;;;;;4.45;2.25;;;;;;;24.60;43.65;99292.83;1744400;80;22135;-58
2022/07/31 18:20:20;;;;;;;4.78;2.42;;;;;;;24.54;43.76;99296.66;1748109;80;21479;-58
2022/07/31 18:22:47;;;;;;;3.65;2.30;;;;;;;24.47;43.94;99295.95;1756068;80;21411;-58
2022/07/31 18:25:14;;;;;;;3.55;2.17;;;;;;;24.44;43.91;99294.09;1744633;80;21910;-59
2022/07/31 18:27:41;;;;;;;3.00;2.45;;;;;;;24.38;44.13;99304.98;1754063;80;20997;-58
2022/07/31 18:30:09;;;;;;;3.80;2.55;;;;;;;24.35;44.17;99305.30;1752820;80;21559;-58
2022/07/31 18:32:36;;;;;;;6.40;2.40;;;;;;;24.30;44.30;99302.28;1743527;80;21628;-59
2022/07/31 18:35:04;;;;;;;6.73;2.13;;;;;;;24.26;44.41;99300.90;1744398;80;21605;-60
2022/07/31 18:37:31;;;;;;;3.02;1.98;;;;;;;24.22;44.55;99304.92;1749032;80;21817;-58
2022/07/31 18:39:58;;;;;;;3.80;1.92;;;;;;;24.12;44.82;99290.78;1747709;80;21515;-58
2022/07/31 18:42:28;;;;;;;3.27;1.82;;;;;;;24.16;45.00;99309.59;1744638;80;21530;-58
2022/07/31 18:44:55;;;;;;;5.45;2.10;;;;;;;24.10;45.10;99300.34;1744087;80;21474;-58
2022/07/31 18:47:23;;;;;;;5.45;2.50;;;;;;;24.03;45.44;99303.33;1742840;80;20986;-58
2022/07/31 18:49:50;;;;;;;3.72;2.30;;;;;;;23.99;45.42;99304.66;1743731;80;22180;-58
2022/07/31 18:52:17;;;;;;;8.03;2.62;;;;;;;23.95;45.51;99300.61;1750165;80;20998;-58
2022/07/31 18:54:43;;;;;;;4.92;2.60;;;;;;;23.93;45.54;99304.80;1741786;80;21046;-58
2022/07/31 18:57:10;;;;;;;5.80;2.50;;;;;;;23.89;45.75;99303.44;1735559;80;21510;-58
2022/07/31 18:59:37;;;;;;;7.60;2.87;;;;;;;23.86;46.04;99307.77;1761416;80;21401;-58
2022/07/31 19:02:03;;;;;;;10.65;2.77;;;;;;;23.82;46.02;99307.75;1749241;80;22128;-59
2022/07/31 19:04:30;;;;;;;12.00;2.67;;;;;;;23.79;46.25;99312.08;1745935;80;21448;-58
2022/07/31 19:06:57;;;;;;;9.93;2.60;;;;;;;23.76;46.35;99321.27;1755142;80;21448;-58
2022/07/31 19:09:24;;;;;;;8.00;2.80;;;;;;;23.76;46.35;99315.07;1746754;80;21592;-58
2022/07/31 19:11:51;;;;;;;3.47;2.65;;;;;;;23.71;46.49;99316.88;1756032;80;21463;-58
2022/07/31 19:14:18;;;;;;;5.87;2.67;;;;;;;23.70;46.68;99316.03;1752711;80;21966;-58
2022/07/31 19:16:44;;;;;;;6.20;2.83;;;;;;;23.68;46.72;99323.41;1749940;80;21470;-58
2022/07/31 19:19:11;;;;;;;5.97;2.90;;;;;;;23.62;46.95;99312.45;1752833;80;21554;-58
2022/07/31 19:21:38;;;;;;;5.08;2.30;;;;;;;23.59;47.00;99313.61;1751184;80;21693;-58
2022/07/31 19:24:05;;;;;;;5.25;2.58;;;;;;;23.56;47.23;99311.23;1757859;80;21542;-58
2022/07/31 19:26:33;;;;;;;4.30;2.95;;;;;;;23.58;47.37;99307.89;1759453;80;21687;-58
2022/07/31 19:29:00;;;;;;;7.35;2.35;;;;;;;23.57;47.45;99307.56;1756082;80;21574;-58
2022/07/31 19:31:27;;;;;;;3.60;2.62;;;;;;;23.59;47.42;99310.09;1748954;80;21568;-58
2022/07/31 19:33:53;;;;;;;5.20;2.72;;;;;;;23.55;47.56;99302.86;1751469;80;21457;-58
2022/07/31 19:36:20;;;;;;;5.28;2.35;;;;;;;23.58;47.46;99305.72;1747799;80;21455;-58
2022/07/31 19:38:46;;;;;;;6.50;2.80;;;;;;;23.55;47.66;99306.88;1757744;80;21837;-58
2022/07/31 19:41:14;;;;;;;5.85;2.80;;;;;;;23.30;48.45;99312.07;1756119;80;21561;-59
2022/07/31 19:43:43;;;;;;;13.08;2.80;;;;;;;23.36;48.41;99311.08;1748479;80;21526;-58
2022/07/31 19:46:10;;;;;;;7.85;2.77;;;;;;;23.34;48.45;99313.95;1748936;80;21495;-59
2022/07/31 19:48:39;;;;;;;;;;;;;;;23.33;48.64;99316.27;1752535;80;21473;-58
2022/07/31 19:51:06;;;;;;;6.87;2.72;;;;;;;23.25;49.19;99314.87;1761746;80;20797;-59
2022/07/31 19:53:33;;;;;;;;;;;;;;;23.19;49.03;99323.52;1753359;80;21511;-58
2022/07/31 19:56:04;;;;;;;5.43;3.00;;;;;;;23.06;49.72;99323.93;1757216;80;20152;-58
2022/07/31 19:58:29;;;;;;;5.42;3.00;;;;;;;22.94;49.48;99324.60;1761724;80;21550;-58
2022/07/31 20:00:55;;;;;;;7.45;3.08;;;;;;;22.85;50.01;99326.86;1766932;80;21478;-58
2022/07/31 20:03:22;;;;;;;8.30;3.30;;;;;;;22.80;50.34;99327.83;1745200;80;21802;-58
2022/07/31 20:05:49;;;;;;;7.60;3.22;;;;;;;22.40;51.06;99324.55;1752107;80;21498;-58
2022/07/31 20:08:15;;;;;;;7.92;2.83;;;;;;;22.21;51.97;99330.81;1742920;80;21648;-57
2022/07/31 20:10:43;;;;;;;5.43;2.63;;;;;;;22.44;51.41;99322.42;1750223;79;21502;-58
2022/07/31 20:13:09;;;;;;;5.90;3.27;;;;;;;22.38;51.77;99320.31;1749826;80;21531;-58
2022/07/31 20:15:36;;;;;;;7.30;3.12;;;;;;;22.34;51.77;99320.63;1735727;80;22100;-58
2022/07/31 20:18:03;;;;;;;7.15;2.65;;;;;;;22.24;52.15;99321.63;1745243;80;21610;-58
2022/07/31 20:20:30;;;;;;;3.92;2.55;;;;;;;22.21;52.46;99318.77;1740817;80;21503;-58
2022/07/31 20:22:57;;;;;;;5.27;2.97;;;;;;;22.28;52.47;99316.35;1748032;80;21451;-58
2022/07/31 20:25:23;;;;;;;7.12;2.45;;;;;;;21.66;53.72;99322.20;1754517;80;21571;-60
2022/07/31 20:27:50;;;;;;;7.90;2.75;;;;;;;22.15;52.80;99315.32;1741720;80;21886;-58
2022/07/31 20:30:20;;;;;;;5.80;2.65;;;;;;;22.24;52.82;99312.26;1748056;80;21748;-58
2022/07/31 20:32:45;;;;;;;4.83;2.95;;;;;;;22.25;52.79;99310.81;1744295;80;21462;-58
2022/07/31 20:35:11;;;;;;;5.97;3.02;;;;;;;22.26;52.88;99309.80;1745707;80;21546;-58
2022/07/31 20:37:39;;;;;;;7.22;2.80;;;;;;;21.64;54.31;99316.13;1758368;80;21407;-59
2022/07/31 20:40:07;;;;;;;8.85;3.20;;;;;;;21.99;54.04;99308.44;1748159;80;21559;-58
2022/07/31 20:42:33;;;;;;;;;;;;;;;22.04;53.70;99302.98;1715297;82;21539;-58
2022/07/31 20:45:00;;;;;;;3.35;2.45;;;;;;;22.09;54.13;99309.23;1682798;84;20430;-58
2022/07/31 20:47:27;;;;;;;5.87;2.80;;;;;;;22.10;53.35;99300.22;1747861;80;21553;-58
2022/07/31 20:49:53;;;;;;;5.95;2.62;;;;;;;22.15;53.34;99301.94;1739266;80;21448;-58
2022/07/31 20:52:20;;;;;;;6.33;2.50;;;;;;;21.73;54.86;99309.08;1743745;80;22194;-58
2022/07/31 20:54:46;;;;;;;6.40;2.55;;;;;;;22.09;53.81;99302.03;1745437;80;20968;-58
2022/07/31 20:57:14;;;;;;;8.58;2.80;;;;;;;22.14;53.61;99298.42;1743240;80;21001;-58
2022/07/31 20:59:41;;;;;;;10.70;3.00;;;;;;;22.13;53.73;99296.75;1750406;80;21563;-59
2022/07/31 21:02:07;;;;;;;6.85;2.83;;;;;;;22.12;53.85;99295.05;1747207;80;21558;-57
2022/07/31 21:04:34;;;;;;;4.12;2.80;;;;;;;22.12;53.83;99295.05;1738794;80;21519;-58
2022/07/31 21:07:01;;;;;;;12.15;2.90;;;;;;;22.11;54.00;99296.06;1755274;80;22558;-58
2022/07/31 21:09:30;;;;;;;5.10;2.85;;;;;;;22.10;54.02;99296.20;1751243;80;21547;-58
2022/07/31 21:11:56;;;;;;;7.60;2.60;;;;;;;21.87;54.90;99295.71;1747602;80;20978;-58
2022/07/31 21:14:24;;;;;;;7.10;2.90;;;;;;;22.06;54.28;99295.66;1752461;80;21613;-58
2022/07/31 21:16:50;;;;;;;9.58;2.72;;;;;;;22.11;54.13;99292.05;1748937;80;21998;-58
2022/07/31 21:19:17;;;;;;;13.32;3.45;;;;;;;21.74;55.70;99295.56;1751401;80;21590;-57
2022/07/31 21:21:43;;;;;;;5.42;2.65;;;;;;;22.07;54.63;99289.80;1747653;80;21490;-58
2022/07/31 21:24:10;;;;;;;7.90;3.17;;;;;;;22.14;54.28;99289.05;1746492;80;21507;-59
2022/07/31 21:26:37;;;;;;;4.47;2.90;;;;;;;21.52;56.28;99299.91;1756074;80;21584;-58
2022/07/31 21:29:07;;;;;;;6.95;3.00;;;;;;;21.45;56.06;99300.97;1755863;80;21741;-58
2022/07/31 21:31:35;;;;;;;6.20;2.50;;;;;;;21.27;56.82;99298.67;1754904;80;21586;-58
2022/07/31 21:34:21;;;;;;;8.53;2.83;;;;;;;21.86;55.45;99290.03;1757116;80;21510;-58
2022/07/31 21:36:49;;;;;;;4.53;2.92;;;;;;;21.19;57.06;99304.22;1703539;82;20994;-58
2022/07/31 21:39:17;;;;;;;7.90;2.75;;;;;;;21.25;57.23;99297.47;1700334;83;20993;-58
2022/07/31 21:41:44;;;;;;;10.25;2.90;;;;;;;21.34;56.84;99295.75;1701913;82;21770;-58
2022/07/31 21:44:11;;;;;;;6.25;3.30;;;;;;;21.28;57.56;99299.83;1703047;82;21514;-58
2022/07/31 21:46:39;;;;;;;6.53;3.17;;;;;;;21.23;57.63;99305.26;1707143;82;21515;-59
2022/07/31 21:49:06;;;;;;;3.45;2.70;;;;;;;21.30;57.65;99301.03;1702098;82;21589;-59
2022/07/31 21:51:34;;;;;;;8.10;2.70;;;;;;;21.20;57.92;99299.71;1698233;83;21640;-59
2022/07/31 21:54:01;;;;;;;3.25;2.92;;;;;;;21.99;56.45;99290.53;1706564;82;21673;-59
2022/07/31 21:56:27;;;;;;;3.87;3.08;;;;;;;21.39;57.90;99301.52;1704792;82;22120;-59
2022/07/31 21:58:54;;;;;;;6.42;3.08;;;;;;;21.35;58.04;99292.94;1701200;82;21490;-59
2022/07/31 22:01:21;;;;;;;6.62;2.95;;;;;;;22.02;56.29;99278.20;1699617;82;21508;-59
2022/07/31 22:03:47;;;;;;;6.05;2.77;;;;;;;22.19;55.79;99269.87;1706081;82;21486;-59
2022/07/31 22:08:59;;;;;;;4.55;2.85;;;;;;;22.26;55.08;99268.80;1704566;82;21650;-59
2022/07/31 22:11:26;;;;;;;4.03;3.17;;;;;;;22.26;55.08;99268.80;1703109;82;21461;-61
2022/07/31 22:13:52;;;;;;;9.48;3.22;;;;;;;22.28;54.89;99266.34;1703251;82;21398;-59
2022/07/31 22:16:19;;;;;;;5.00;2.83;;;;;;;22.28;54.77;99261.45;1702733;82;21575;-59
2022/07/31 22:18:47;;;;;;;5.83;3.62;;;;;;;22.29;54.75;99263.16;1701303;82;21885;-59
2022/07/31 22:21:14;;;;;;;3.50;2.98;;;;;;;22.27;54.72;99259.28;1704648;82;21546;-59
2022/07/31 22:23:41;;;;;;;5.67;3.30;;;;;;;22.28;54.74;99256.10;1702657;83;21435;-59
2022/07/31 22:26:08;;;;;;;7.42;3.30;;;;;;;22.24;54.83;99251.51;1705669;82;21502;-59
2022/07/31 22:28:35;;;;;;;5.03;3.10;;;;;;;22.26;54.79;99254.08;1700255;82;21754;-59
2022/07/31 22:31:02;;;;;;;7.45;3.12;;;;;;;22.18;54.94;99258.81;1704966;82;21828;-58
2022/07/31 22:33:29;;;;;;;8.50;3.10;;;;;;;22.22;54.94;99263.38;1705195;82;21643;-59
2022/07/31 22:35:56;;;;;;;6.75;2.90;;;;;;;21.38;57.26;99279.80;1704500;83;21131;-58
2022/07/31 22:38:25;;;;;;;5.12;2.75;;;;;;;21.04;58.83;99280.26;1706830;82;20973;-59
2022/07/31 22:40:52;;;;;;;4.60;3.27;;;;;;;22.04;56.45;99271.34;1711345;82;21474;-57
2022/07/31 22:43:19;;;;;;;5.80;3.13;;;;;;;22.11;55.96;99264.41;1701232;82;21695;-58
2022/07/31 22:45:47;;;;;;;10.23;3.22;;;;;;;22.11;55.61;99257.24;1710059;82;21517;-57
2022/07/31 22:48:14;;;;;;;3.35;2.70;;;;;;;22.04;55.77;99261.50;1709188;83;21624;-57
2022/07/31 22:50:41;;;;;;;4.00;3.03;;;;;;;21.91;56.07;99265.85;1713005;82;21465;-58
2022/07/31 22:53:07;;;;;;;7.40;3.80;;;;;;;20.88;58.69;99275.45;1704117;82;21450;-57
2022/07/31 22:55:35;;;;;;;4.92;3.37;;;;;;;21.46;57.81;99271.91;1710633;82;21895;-56
2022/07/31 22:58:01;;;;;;;3.50;2.80;;;;;;;21.64;56.94;99258.61;1710500;82;21635;-56
2022/07/31 23:00:28;;;;;;;6.47;3.42;;;;;;;21.69;56.77;99260.36;1695728;82;20958;-56
2022/07/31 23:02:55;;;;;;;7.33;3.65;;;;;;;20.80;59.23;99277.50;1702518;82;21463;-56
2022/07/31 23:05:22;;;;;;;5.30;3.27;;;;;;;20.70;59.49;99280.67;1705310;83;21482;-56
2022/07/31 23:07:48;;;;;;;5.03;3.05;;;;;;;21.46;58.22;99263.89;1714339;81;21730;-56
2022/07/31 23:10:16;;;;;;;6.03;3.62;;;;;;;21.64;57.42;99257.28;1719128;81;21478;-56
2022/07/31 23:12:42;;;;;;;5.70;2.87;;;;;;;21.64;57.42;99257.28;1699521;82;21080;-56
2022/07/31 23:15:09;;;;;;;9.30;3.60;;;;;;;21.69;57.16;99260.87;1706420;83;21557;-56
2022/07/31 23:17:36;;;;;;;5.95;3.70;;;;;;;21.68;56.97;99257.83;1710348;83;21585;-56
2022/07/31 23:20:04;;;;;;;4.55;3.20;;;;;;;20.59;59.92;99268.25;1703683;82;21796;-58
2022/07/31 23:22:31;;;;;;;5.45;3.30;;;;;;;20.59;59.92;99268.25;1703544;83;21403;-56
2022/07/31 23:24:58;;;;;;;6.20;3.27;;;;;;;20.76;60.23;99276.59;1708641;82;21479;-56
2022/07/31 23:27:24;;;;;;;3.70;3.40;;;;;;;21.24;57.88;99252.16;1712273;82;21516;-56
2022/07/31 23:29:51;;;;;;;7.83;3.42;;;;;;;21.24;57.88;99252.16;1709091;82;20950;-56
2022/07/31 23:32:18;;;;;;;6.85;3.52;;;;;;;21.28;57.83;99254.38;1708741;83;22072;-55
2022/07/31 23:34:44;;;;;;;6.30;2.90;;;;;;;21.28;57.63;99245.02;1715704;82;21534;-55
2022/07/31 23:37:11;;;;;;;5.17;3.40;;;;;;;20.50;59.40;99255.72;1709868;82;21395;-56
2022/07/31 23:39:38;;;;;;;3.70;3.12;;;;;;;20.38;60.18;99260.35;1708820;83;21509;-56
2022/07/31 23:44:51;;;;;;;7.85;2.77;;;;;;;20.41;60.67;99257.89;1693667;82;21900;-58
2022/07/31 23:47:18;;;;;;;5.55;2.98;;;;;;;20.31;61.51;99271.22;1708051;82;20970;-58
2022/07/31 23:49:44;;;;;;;7.95;3.42;;;;;;;20.38;61.26;99258.15;1707799;82;21426;-58
2022/07/31 23:52:11;;;;;;;5.40;3.17;;;;;;;21.25;59.22;99243.12;1708644;82;21446;-57
2022/07/31 23:54:38;;;;;;;11.20;3.20;;;;;;;20.93;60.34;99247.00;1701399;82;21595;-57
2022/07/31 23:57:04;;;;;;;5.37;3.27;;;;;;;20.52;60.90;99252.42;1707854;83;21891;-58
2022/07/31 23:59:31;;;;;;;9.53;3.12;;;;;;;20.38;61.37;99254.14;1707265;83;21475;-57
